createdAt,value
2022-09-21T00:01:09.434Z,66.78
2022-09-21T00:03:37.766Z,66.72
2022-09-21T00:06:08.860Z,66.64
2022-09-21T00:08:37.034Z,66.71
2022-09-21T00:11:05.788Z,66.62
2022-09-21T00:13:35.083Z,66.86
2022-09-21T00:16:07.087Z,66.69
2022-09-21T00:18:36.192Z,66.80
2022-09-21T00:21:10.008Z,67.09
2022-09-21T00:23:38.216Z,66.66
2022-09-21T00:26:08.563Z,66.72
2022-09-21T00:28:36.697Z,67.04
2022-09-21T00:31:05.738Z,67.00
2022-09-21T00:33:34.009Z,67.22
2022-09-21T00:36:06.049Z,68.14
2022-09-21T00:38:36.422Z,68.45
2022-09-21T00:41:05.581Z,68.14
2022-09-21T00:43:35.808Z,67.78
2022-09-21T00:46:06.548Z,67.39
2022-09-21T00:48:35.169Z,67.03
2022-09-21T00:51:06.222Z,67.36
2022-09-21T00:53:35.894Z,68.01
2022-09-21T00:56:04.192Z,67.09
2022-09-21T00:58:38.199Z,67.15
2022-09-21T01:01:06.205Z,67.04
2022-09-21T01:03:34.392Z,66.74
2022-09-21T01:06:02.415Z,66.89
2022-09-21T01:08:30.811Z,67.55
2022-09-21T01:11:20.365Z,67.71
2022-09-21T01:13:59.792Z,67.68
2022-09-21T01:16:33.134Z,68.46
2022-09-21T01:19:12.952Z,68.15
2022-09-21T01:21:53.089Z,68.72
2022-09-21T01:24:50.359Z,69.21
2022-09-21T01:27:52.654Z,69.65
2022-09-21T01:30:23.691Z,69.47
2022-09-21T01:32:59.265Z,69.43
2022-09-21T01:35:32.147Z,69.36
2022-09-21T01:38:04.240Z,69.96
2022-09-21T01:40:36.034Z,70.48
2022-09-21T01:43:06.435Z,70.53
2022-09-21T01:45:40.322Z,70.44
2022-09-21T01:48:09.189Z,71.05
2022-09-21T01:50:41.398Z,71.00
2022-09-21T01:53:13.959Z,70.75
2022-09-21T01:55:46.845Z,71.42
2022-09-21T01:58:20.285Z,71.63
2022-09-21T02:00:53.818Z,71.51
2022-09-21T02:03:26.139Z,71.51
2022-09-21T02:05:54.796Z,71.57
2022-09-21T02:08:22.832Z,71.02
2022-09-21T02:10:52.615Z,70.87
2022-09-21T02:13:25.380Z,70.04
2022-09-21T02:16:10.816Z,69.97
2022-09-21T02:18:48.446Z,70.42
2022-09-21T02:21:25.553Z,70.21
2022-09-21T02:24:04.124Z,70.46
2022-09-21T02:26:37.372Z,70.32
2022-09-21T02:29:17.227Z,70.45
2022-09-21T02:31:53.530Z,70.60
2022-09-21T02:34:29.569Z,70.54
2022-09-21T02:37:04.131Z,70.24
2022-09-21T02:39:36.293Z,70.47
2022-09-21T02:42:11.049Z,69.90
2022-09-21T02:44:43.727Z,70.55
2022-09-21T02:47:18.864Z,70.39
2022-09-21T02:49:51.361Z,70.51
2022-09-21T02:52:20.648Z,70.61
2022-09-21T02:54:51.504Z,70.46
2022-09-21T02:57:21.591Z,70.32
2022-09-21T02:59:49.963Z,70.57
2022-09-21T03:02:19.137Z,70.07
2022-09-21T03:04:50.014Z,69.76
2022-09-21T03:07:18.342Z,70.38
2022-09-21T03:09:46.599Z,70.13
2022-09-21T03:12:14.548Z,70.03
2022-09-21T03:14:42.602Z,70.38
2022-09-21T03:17:10.428Z,70.11
2022-09-21T03:19:39.634Z,69.84
2022-09-21T03:22:07.556Z,70.11
2022-09-21T03:24:47.553Z,69.80
2022-09-21T03:27:16.190Z,70.16
2022-09-21T03:29:44.339Z,69.64
2022-09-21T03:32:13.886Z,69.43
2022-09-21T03:34:43.511Z,68.86
2022-09-21T03:37:12.533Z,68.84
2022-09-21T03:39:40.309Z,68.60
2022-09-21T03:42:09.945Z,68.46
2022-09-21T03:44:38.325Z,68.62
2022-09-21T03:47:06.724Z,68.44
2022-09-21T03:49:35.048Z,68.69
2022-09-21T03:52:04.699Z,68.69
2022-09-21T03:54:32.501Z,68.66
2022-09-21T03:57:00.394Z,68.51
2022-09-21T03:59:28.211Z,68.83
2022-09-21T04:01:56.004Z,68.85
2022-09-21T04:04:23.955Z,69.03
2022-09-21T04:06:52.020Z,69.32
2022-09-21T04:09:21.197Z,69.29
2022-09-21T04:11:49.220Z,69.52
2022-09-21T04:14:17.654Z,69.54
2022-09-21T04:16:45.509Z,69.68
2022-09-21T04:19:13.573Z,70.44
2022-09-21T04:21:41.389Z,70.72
2022-09-21T04:24:09.256Z,70.41
2022-09-21T04:26:40.786Z,71.60
2022-09-21T04:29:08.639Z,71.10
2022-09-21T04:31:36.620Z,70.89
2022-09-21T04:34:04.834Z,71.25
2022-09-21T04:36:36.473Z,70.64
2022-09-21T04:39:05.304Z,70.78
2022-09-21T04:41:33.181Z,71.22
2022-09-21T04:44:02.895Z,70.87
2022-09-21T04:46:30.891Z,70.38
2022-09-21T04:48:58.841Z,70.32
2022-09-21T04:51:27.006Z,70.45
2022-09-21T04:53:54.866Z,70.13
2022-09-21T04:56:22.792Z,70.31
2022-09-21T04:58:50.671Z,70.13
2022-09-21T05:01:19.981Z,70.71
2022-09-21T05:03:48.040Z,71.09
2022-09-21T05:06:16.129Z,70.50
2022-09-21T05:09:01.839Z,71.36
2022-09-21T05:11:29.982Z,71.47
2022-09-21T05:13:57.907Z,71.41
2022-09-21T05:16:27.145Z,70.88
2022-09-21T05:18:55.873Z,70.43
2022-09-21T05:21:24.066Z,71.05
2022-09-21T05:23:52.399Z,70.65
2022-09-21T05:26:20.318Z,70.99
2022-09-21T05:28:48.699Z,71.42
2022-09-21T05:31:46.873Z,70.50
2022-09-21T05:34:31.890Z,70.25
2022-09-21T05:37:08.615Z,70.34
2022-09-21T05:39:37.360Z,70.59
2022-09-21T05:42:06.463Z,70.25
2022-09-21T05:44:34.733Z,70.22
2022-09-21T05:47:15.473Z,69.84
2022-09-21T05:49:51.282Z,69.98
2022-09-21T05:52:26.587Z,69.73
2022-09-21T05:55:03.983Z,69.51
2022-09-21T05:57:42.169Z,69.43
2022-09-21T06:00:17.336Z,68.96
2022-09-21T06:03:05.787Z,69.17
2022-09-21T06:05:33.798Z,69.36
2022-09-21T06:08:01.739Z,69.22
2022-09-21T06:10:34.706Z,68.45
2022-09-21T06:13:02.760Z,69.08
2022-09-21T06:15:30.772Z,69.55
2022-09-21T06:18:00.278Z,69.27
2022-09-21T06:20:28.249Z,69.15
2022-09-21T06:23:01.857Z,69.51
2022-09-21T06:25:29.764Z,70.13
2022-09-21T06:28:02.308Z,69.85
2022-09-21T06:30:30.177Z,69.92
2022-09-21T06:33:02.507Z,70.36
2022-09-21T06:35:31.541Z,69.73
2022-09-21T06:38:00.444Z,68.91
2022-09-21T06:40:28.809Z,69.03
2022-09-21T06:42:58.285Z,69.06
2022-09-21T06:45:26.417Z,69.78
2022-09-21T06:47:54.591Z,68.86
2022-09-21T06:50:24.364Z,68.54
2022-09-21T06:52:52.336Z,69.63
2022-09-21T06:55:20.402Z,69.73
2022-09-21T06:57:48.326Z,69.68
2022-09-21T07:00:16.825Z,69.25
2022-09-21T07:02:45.668Z,68.91
2022-09-21T07:05:14.004Z,68.81
2022-09-21T07:07:43.291Z,69.18
2022-09-21T07:10:15.909Z,68.94
2022-09-21T07:12:46.540Z,68.15
2022-09-21T07:15:15.472Z,67.42
2022-09-21T07:17:51.564Z,66.94
2022-09-21T07:20:20.183Z,66.09
2022-09-21T07:22:49.664Z,66.18
2022-09-21T07:25:17.949Z,65.38
2022-09-21T07:27:47.694Z,65.79
2022-09-21T07:30:15.544Z,65.54
2022-09-21T07:32:43.714Z,66.32
2022-09-21T07:35:12.030Z,64.60
2022-09-21T07:37:40.149Z,61.72
2022-09-21T07:40:10.573Z,62.10
2022-09-21T07:42:38.479Z,63.11
2022-09-21T07:45:07.533Z,62.90
2022-09-21T07:47:35.539Z,64.06
2022-09-21T07:50:03.391Z,65.43
2022-09-21T07:52:33.155Z,65.76
2022-09-21T07:55:01.120Z,65.50
2022-09-21T07:57:47.781Z,64.56
2022-09-21T08:00:16.201Z,64.04
2022-09-21T08:02:47.612Z,63.68
2022-09-21T08:05:16.197Z,62.89
2022-09-21T08:07:44.272Z,63.61
2022-09-21T08:10:12.607Z,63.57
2022-09-21T08:12:43.894Z,62.77
2022-09-21T08:15:30.619Z,62.84
2022-09-21T08:18:01.325Z,61.91
2022-09-21T08:20:29.479Z,55.00
2022-09-21T08:22:57.684Z,51.64
2022-09-21T09:09:27.778Z,43.90
2022-09-21T09:12:16.443Z,47.78
2022-09-21T09:15:01.759Z,51.06
2022-09-21T09:17:40.339Z,51.72
2022-09-21T09:20:14.660Z,53.88
2022-09-21T09:22:47.419Z,53.41
2022-09-21T09:25:21.767Z,50.92
2022-09-21T09:27:53.771Z,48.20
2022-09-21T09:30:23.176Z,44.88
2022-09-21T09:32:57.123Z,47.58
2022-09-21T09:35:30.137Z,43.07
2022-09-21T09:38:03.823Z,39.04
2022-09-21T09:40:50.268Z,38.85
2022-09-21T09:43:32.459Z,38.36
2022-09-21T09:46:11.920Z,38.55
2022-09-21T09:48:56.138Z,35.03
2022-09-21T09:51:23.959Z,35.32
2022-09-21T09:53:52.592Z,36.66
2022-09-21T09:56:21.727Z,39.87
2022-09-21T09:58:54.307Z,40.81
2022-09-21T10:01:40.644Z,41.33
2022-09-21T10:04:11.980Z,44.87
2022-09-21T10:06:45.821Z,46.04
2022-09-21T10:09:30.976Z,46.41
2022-09-21T10:12:06.810Z,47.59
2022-09-21T10:14:37.558Z,47.70
2022-09-21T10:17:08.595Z,47.16
2022-09-21T10:19:38.145Z,49.70
2022-09-21T10:22:06.804Z,52.02
2022-09-21T10:24:38.935Z,51.81
2022-09-21T10:27:14.376Z,54.08
2022-09-21T10:29:43.532Z,53.98
2022-09-21T10:32:22.499Z,53.78
2022-09-21T10:35:15.915Z,53.14
2022-09-21T10:37:46.377Z,51.74
2022-09-21T10:40:27.814Z,53.05
2022-09-21T10:42:59.883Z,52.25
2022-09-21T10:45:29.803Z,52.79
2022-09-21T10:47:59.879Z,52.88
2022-09-21T10:50:30.355Z,51.56
2022-09-21T10:53:01.948Z,51.00
2022-09-21T10:55:32.135Z,50.89
2022-09-21T10:58:01.691Z,50.62
2022-09-21T11:00:41.373Z,49.14
2022-09-21T11:03:39.330Z,48.85
2022-09-21T11:06:12.679Z,49.70
2022-09-21T11:08:46.410Z,49.68
2022-09-21T11:11:33.530Z,48.83
2022-09-21T11:14:11.613Z,49.83
2022-09-21T11:16:44.817Z,47.08
2022-09-21T11:19:22.152Z,47.93
2022-09-21T11:21:56.401Z,47.74
2022-09-21T11:24:33.246Z,46.18
2022-09-21T11:27:07.414Z,47.92
2022-09-21T11:29:43.195Z,44.92
2022-09-21T11:32:34.792Z,46.49
2022-09-21T11:35:24.254Z,45.81
2022-09-21T11:38:05.243Z,45.90
2022-09-21T11:40:54.467Z,45.93
2022-09-21T11:43:39.924Z,47.55
2022-09-21T11:46:19.248Z,48.70
2022-09-21T11:49:01.284Z,49.59
2022-09-21T11:51:40.023Z,49.42
2022-09-21T11:54:23.158Z,49.73
2022-09-21T11:56:57.016Z,49.43
2022-09-21T11:59:42.616Z,47.81
2022-09-21T12:02:32.179Z,47.01
2022-09-21T12:05:08.085Z,47.43
2022-09-21T12:07:54.133Z,49.24
2022-09-21T12:10:40.310Z,49.28
2022-09-21T12:13:21.530Z,48.73
2022-09-21T12:15:57.943Z,47.65
2022-09-21T12:18:32.546Z,44.79
2022-09-21T12:21:06.718Z,45.59
2022-09-21T12:23:41.512Z,45.27
2022-09-21T12:26:11.529Z,44.07
2022-09-21T12:28:42.923Z,43.87
2022-09-21T12:31:39.088Z,45.41
2022-09-21T12:34:17.012Z,43.69
2022-09-21T12:36:49.577Z,44.00
2022-09-21T12:39:24.567Z,41.75
2022-09-21T12:41:57.446Z,44.42
2022-09-21T12:44:33.682Z,41.22
2022-09-21T12:47:10.121Z,42.46
2022-09-21T12:49:50.328Z,43.29
2022-09-21T12:52:24.374Z,42.82
2022-09-21T12:54:58.313Z,42.03
2022-09-21T13:00:31.276Z,44.00
2022-09-21T13:03:10.533Z,45.37
2022-09-21T13:05:53.048Z,47.50
2022-09-21T13:08:27.740Z,48.26
2022-09-21T13:11:04.692Z,48.53
2022-09-21T13:13:36.327Z,50.10
2022-09-21T13:16:06.506Z,51.98
2022-09-21T13:18:36.813Z,50.04
2022-09-21T13:21:19.107Z,48.90
2022-09-21T13:23:53.824Z,47.76
2022-09-21T13:26:32.654Z,48.20
2022-09-21T13:29:04.748Z,47.33
2022-09-21T13:31:57.579Z,48.58
2022-09-21T13:34:36.776Z,48.90
2022-09-21T13:37:36.153Z,53.21
2022-09-21T13:40:34.970Z,55.91
2022-09-21T13:43:26.003Z,58.05
2022-09-21T13:45:59.471Z,56.91
2022-09-21T13:48:30.380Z,57.33
2022-09-21T13:51:01.687Z,57.60
2022-09-21T13:53:40.011Z,57.41
2022-09-21T13:56:10.977Z,57.88
2022-09-21T13:58:45.989Z,57.52
2022-09-21T14:01:42.435Z,56.07
2022-09-21T14:04:19.675Z,54.74
2022-09-21T14:06:51.318Z,55.50
2022-09-21T14:09:25.701Z,54.14
2022-09-21T14:12:00.251Z,54.52
2022-09-21T14:14:32.092Z,54.01
2022-09-21T14:17:01.242Z,53.73
2022-09-21T14:20:07.140Z,54.93
2022-09-21T14:22:40.578Z,55.07
2022-09-21T14:25:27.653Z,54.66
2022-09-21T14:28:00.863Z,53.42
2022-09-21T14:30:33.436Z,53.61
2022-09-21T14:33:13.761Z,53.63
2022-09-21T14:35:47.391Z,54.17
2022-09-21T14:38:20.770Z,53.55
2022-09-21T14:40:52.097Z,54.29
2022-09-21T14:43:25.274Z,51.12
2022-09-21T14:46:16.832Z,52.71
2022-09-21T14:48:55.359Z,52.70
2022-09-21T14:51:38.204Z,55.21
2022-09-21T14:54:26.448Z,55.22
2022-09-21T14:57:10.980Z,53.57
2022-09-21T14:59:52.904Z,53.73
2022-09-21T15:02:23.605Z,53.19
2022-09-21T15:05:01.982Z,54.91
2022-09-21T15:07:57.137Z,55.73
2022-09-21T15:10:54.986Z,57.63
2022-09-21T15:14:13.434Z,57.89
2022-09-21T15:16:43.997Z,57.46
2022-09-21T15:19:21.540Z,57.14
2022-09-21T15:21:51.278Z,56.05
2022-09-21T15:24:27.028Z,57.13
2022-09-21T15:27:03.641Z,56.66
2022-09-21T15:29:34.781Z,57.03
2022-09-21T15:32:04.065Z,56.25
2022-09-21T15:34:32.286Z,57.60
2022-09-21T15:37:16.574Z,55.79
2022-09-21T15:39:44.940Z,53.95
2022-09-21T15:42:20.282Z,52.49
2022-09-21T15:44:51.061Z,54.38
2022-09-21T15:47:23.023Z,52.38
2022-09-21T15:49:52.349Z,52.78
2022-09-21T15:52:28.373Z,54.04
2022-09-21T15:55:00.533Z,52.64
2022-09-21T15:57:39.000Z,51.83
2022-09-21T16:00:22.631Z,54.89
2022-09-21T16:02:57.243Z,54.70
2022-09-21T16:05:25.617Z,54.60
2022-09-21T16:08:06.363Z,55.92
2022-09-21T16:10:44.666Z,56.28
2022-09-21T16:13:36.178Z,57.06
2022-09-21T16:16:07.658Z,57.12
2022-09-21T16:18:48.092Z,56.60
2022-09-21T16:21:23.739Z,57.08
2022-09-21T16:23:55.579Z,57.04
2022-09-21T16:26:27.001Z,57.24
2022-09-21T16:29:16.849Z,56.13
2022-09-21T16:31:50.171Z,55.82
2022-09-21T16:34:36.854Z,56.91
2022-09-21T16:37:25.263Z,57.93
2022-09-21T16:39:54.168Z,57.39
2022-09-21T16:42:23.238Z,56.89
2022-09-21T16:44:51.862Z,57.73
2022-09-21T16:47:25.260Z,57.27
2022-09-21T16:49:56.529Z,58.30
2022-09-21T16:52:25.057Z,59.53
2022-09-21T16:54:54.856Z,58.70
2022-09-21T16:57:22.618Z,58.89
2022-09-21T16:59:51.172Z,58.64
2022-09-21T17:02:20.782Z,59.52
2022-09-21T17:04:49.166Z,59.79
2022-09-21T17:07:18.969Z,59.86
2022-09-21T17:09:48.207Z,60.37
2022-09-21T17:12:18.338Z,62.04
2022-09-21T17:14:47.403Z,62.85
2022-09-21T17:17:19.375Z,63.17
2022-09-21T17:19:50.717Z,62.54
2022-09-21T17:22:19.202Z,63.23
2022-09-21T17:24:52.073Z,63.12
2022-09-21T17:27:22.659Z,63.33
2022-09-21T17:29:51.067Z,63.55
2022-09-21T17:32:21.255Z,64.06
2022-09-21T17:34:56.321Z,64.11
2022-09-21T17:37:25.150Z,64.82
2022-09-21T17:39:53.912Z,64.96
2022-09-21T17:42:25.133Z,64.82
2022-09-21T17:45:11.758Z,64.56
2022-09-21T17:47:41.004Z,65.19
2022-09-21T17:50:23.027Z,64.71
2022-09-21T17:53:09.060Z,64.93
2022-09-21T17:55:37.659Z,64.81
2022-09-21T17:58:24.412Z,65.18
2022-09-21T18:01:01.545Z,65.73
2022-09-21T18:03:31.742Z,65.27
2022-09-21T18:06:02.850Z,64.98
2022-09-21T18:08:33.422Z,65.21
2022-09-21T18:11:16.848Z,65.24
2022-09-21T18:13:55.455Z,64.91
2022-09-21T18:16:28.337Z,64.79
2022-09-21T18:19:21.679Z,65.25
2022-09-21T18:21:56.082Z,65.30
2022-09-21T18:24:31.149Z,66.23
2022-09-21T18:27:00.773Z,66.19
2022-09-21T18:29:40.654Z,66.39
2022-09-21T18:32:41.109Z,66.16
2022-09-21T18:35:19.680Z,66.09
2022-09-21T18:38:02.862Z,66.09
2022-09-21T18:40:45.468Z,65.98
2022-09-21T18:43:26.320Z,66.06
2022-09-21T18:46:01.870Z,65.83
2022-09-21T18:48:41.263Z,65.93
2022-09-21T18:51:20.380Z,66.24
2022-09-21T18:53:52.910Z,66.08
2022-09-21T18:56:21.445Z,66.16
2022-09-21T18:58:50.557Z,66.28
2022-09-21T19:01:21.952Z,66.33
2022-09-21T19:03:50.832Z,66.39
2022-09-21T19:06:32.612Z,66.52
2022-09-21T19:09:15.625Z,66.62
2022-09-21T19:11:50.663Z,66.40
2022-09-21T19:14:23.760Z,66.56
2022-09-21T19:17:07.080Z,66.62
2022-09-21T19:19:45.258Z,66.89
2022-09-21T19:22:16.734Z,66.41
2022-09-21T19:24:57.008Z,66.84
2022-09-21T19:27:36.009Z,66.89
2022-09-21T19:30:09.019Z,66.92
2022-09-21T19:32:43.711Z,66.88
2022-09-21T19:35:21.556Z,66.28
2022-09-21T19:37:50.655Z,66.22
2022-09-21T19:40:22.278Z,66.09
2022-09-21T19:43:00.451Z,66.64
2022-09-21T19:45:36.039Z,66.36
2022-09-21T19:48:09.917Z,66.48
2022-09-21T19:50:41.866Z,66.42
2022-09-21T19:53:29.950Z,66.56
2022-09-21T19:56:18.667Z,66.70
2022-09-21T19:59:05.022Z,67.49
2022-09-21T20:01:36.715Z,68.09
2022-09-21T20:04:06.368Z,68.34
2022-09-21T20:06:43.999Z,68.28
2022-09-21T20:09:18.382Z,68.89
2022-09-21T20:11:52.044Z,68.97
2022-09-21T20:14:29.283Z,69.16
2022-09-21T20:17:00.418Z,68.32
2022-09-21T20:19:39.029Z,67.93
2022-09-21T20:22:12.520Z,67.76
2022-09-21T20:24:49.847Z,67.43
2022-09-21T20:27:32.554Z,67.45
2022-09-21T20:30:00.391Z,67.86
2022-09-21T20:32:28.660Z,68.32
2022-09-21T20:34:57.122Z,67.94
2022-09-21T20:37:26.309Z,67.88
2022-09-21T20:39:54.702Z,68.04
2022-09-21T20:42:26.775Z,67.63
2022-09-21T20:44:55.240Z,67.13
2022-09-21T20:47:23.671Z,67.02
2022-09-21T20:49:52.121Z,67.07
2022-09-21T20:52:20.087Z,67.23
2022-09-21T20:54:49.590Z,67.04
2022-09-21T20:57:18.094Z,67.35
2022-09-21T20:59:47.892Z,67.80
2022-09-21T21:02:16.701Z,67.78
2022-09-21T21:04:44.583Z,68.08
2022-09-21T21:07:12.619Z,67.98
2022-09-21T21:09:40.384Z,68.74
2022-09-21T21:12:09.419Z,68.32
2022-09-21T21:14:37.499Z,68.53
2022-09-21T21:17:07.180Z,68.71
2022-09-21T21:19:35.302Z,68.23
2022-09-21T21:22:03.118Z,68.28
2022-09-21T21:24:43.723Z,68.49
2022-09-21T21:27:14.749Z,68.46
2022-09-21T21:29:43.094Z,68.59
2022-09-21T21:32:13.047Z,68.20
2022-09-21T21:34:41.119Z,67.54
2022-09-21T21:37:09.211Z,68.10
2022-09-21T21:39:37.011Z,68.89
2022-09-21T21:42:05.191Z,68.96
2022-09-21T21:44:32.992Z,68.78
2022-09-21T21:47:20.872Z,68.62
2022-09-21T21:49:50.068Z,68.29
2022-09-21T21:52:17.866Z,68.02
2022-09-21T21:54:45.636Z,67.86
2022-09-21T21:57:14.891Z,68.11
2022-09-21T21:59:43.226Z,68.10
2022-09-21T22:02:11.637Z,68.14
2022-09-21T22:04:39.676Z,67.84
2022-09-21T22:07:08.836Z,67.32
2022-09-21T22:09:36.627Z,67.49
2022-09-21T22:12:04.701Z,67.18
2022-09-21T22:14:32.529Z,66.59
2022-09-21T22:17:01.796Z,66.71
2022-09-21T22:19:29.669Z,66.48
2022-09-21T22:21:57.709Z,65.57
2022-09-21T22:24:26.943Z,65.89
2022-09-21T22:26:54.745Z,65.21
2022-09-21T22:29:22.883Z,67.29
2022-09-21T22:31:51.638Z,66.80
2022-09-21T22:34:20.262Z,65.33
